Bintulu Airport Bintulu MY
ICAO: WBGB
IATA:
Category: Medium
Scheduled Services:

Elevation: 74 ft
TransAlt. 11000 ft.

Airport Communications:
ATIS:127.8
GND:121.8
TWR:122.3

WBGB Zoom In..

If you have problems with the map follow the link
https://www.worldairports.se/pages/airport.php?
ICAO=WBGB

Runways:

(A) RW 17 length 9006 ft width 148 ft
ILS 108.70 / hdg 167

(B) RW 35 length 9006 ft width 148 ft
---- / hdg 347

Location; WBGB
Day. 22 / Time. 07.00 Zulu
* QNH: 1008
* Temperature: 32° c. 89.6°f.
* Wind from: 290° Speed 08 kn.
Dewpoint: 26° c.
Visibility: 10 km or more.
Clouds: Few 1500 ft.
Clouds: Scattered 1600 ft.
Clouds: Broken 3000 ft.

WBGB 220700Z 29008KT 230V350 9999 FEW015CB SCT016 BKN300 32/26 Q1008


Wind From 290°
Speed 08 kn.

 
 
jpsmedia worldairports.se 2019   terms of use